Time;durP1;ratioP1;P1;durP2;ratioP2;P2;SDS_P1;SDS_P2;PMS_P1;PMS_P2;Temp;Humidity;BMP_temperature;BMP_pressure;BME280_temperature;BME280_humidity;BME280_pressure;Samples;Min_cycle;Max_cycle;Signal;HPM_P1;HPM_P2
2023/10/22 00:00:24;;;;;;;3.42;1.10;;;;;;;;;;5049812;28;20200;-66
2023/10/22 00:02:50;;;;;;;3.30;1.20;;;;;;;;;;5048513;28;20218;-64
2023/10/22 00:05:17;;;;;;;3.90;1.17;;;;;;;;;;5050357;28;20462;-65
2023/10/22 00:07:44;;;;;;;4.15;1.17;;;;;;;;;;5053132;28;20200;-65
2023/10/22 00:10:11;;;;;;;3.55;1.38;;;;;;;;;;5048149;28;20207;-64
2023/10/22 00:12:39;;;;;;;5.10;1.20;;;;;;;;;;5037278;28;20261;-65
2023/10/22 00:15:06;;;;;;;2.00;0.90;;;;;;;;;;5040750;28;20196;-65
2023/10/22 00:17:35;;;;;;;3.03;1.10;;;;;;;;;;5047626;28;20196;-64
2023/10/22 00:20:02;;;;;;;4.10;1.30;;;;;;;;;;5046130;28;20222;-67
2023/10/22 00:22:29;;;;;;;4.63;1.40;;;;;;;;;;5053043;28;20203;-65
2023/10/22 00:24:57;;;;;;;3.90;1.00;;;;;;;;;;5045541;28;20325;-65
2023/10/22 00:27:25;;;;;;;5.97;1.30;;;;;;;;;;5054748;28;20203;-66
2023/10/22 00:29:52;;;;;;;5.53;1.40;;;;;;;;;;5048391;28;20208;-66
2023/10/22 00:32:19;;;;;;;5.30;1.30;;;;;;;;;;5050227;28;20192;-66
2023/10/22 00:34:48;;;;;;;5.93;1.20;;;;;;;;;;5052695;28;20208;-65
2023/10/22 00:37:15;;;;;;;2.93;1.00;;;;;;;;;;5052245;28;20234;-65
2023/10/22 00:39:43;;;;;;;3.60;1.07;;;;;;;;;;5051220;28;20214;-65
2023/10/22 00:42:10;;;;;;;7.20;1.53;;;;;;;;;;5052937;28;20210;-65
2023/10/22 00:44:37;;;;;;;4.23;1.67;;;;;;;;;;5051374;28;20218;-65
2023/10/22 00:47:05;;;;;;;5.17;1.20;;;;;;;;;;5051299;28;20207;-65
2023/10/22 00:49:32;;;;;;;3.33;1.30;;;;;;;;;;5049071;28;20206;-64
2023/10/22 00:52:01;;;;;;;6.40;1.30;;;;;;;;;;5052107;28;20213;-65
2023/10/22 00:54:28;;;;;;;8.53;1.87;;;;;;;;;;5052187;28;20211;-64
2023/10/22 00:56:56;;;;;;;3.90;1.20;;;;;;;;;;5050572;28;20294;-64
2023/10/22 00:59:23;;;;;;;5.10;1.60;;;;;;;;;;5048532;28;20203;-65
2023/10/22 01:01:50;;;;;;;3.27;1.30;;;;;;;;;;5052318;28;20526;-65
2023/10/22 01:04:18;;;;;;;5.87;1.37;;;;;;;;;;5047663;28;20220;-69
2023/10/22 01:06:45;;;;;;;3.77;1.33;;;;;;;;;;5046186;28;20238;-65
2023/10/22 01:09:15;;;;;;;4.40;1.40;;;;;;;;;;5050324;28;20209;-66
2023/10/22 01:11:57;;;;;;;5.07;1.60;;;;;;;;;;5048794;28;20203;-66
2023/10/22 01:14:24;;;;;;;5.00;1.40;;;;;;;;;;5047630;28;20211;-66
2023/10/22 01:16:51;;;;;;;4.27;1.20;;;;;;;;;;5048720;28;20203;-66
2023/10/22 01:19:18;;;;;;;4.83;1.40;;;;;;;;;;5045245;28;20213;-66
2023/10/22 01:21:45;;;;;;;5.43;1.73;;;;;;;;;;5050976;28;20203;-65
2023/10/22 01:24:14;;;;;;;5.57;1.33;;;;;;;;;;5043686;28;20206;-65
2023/10/22 01:26:41;;;;;;;4.57;1.53;;;;;;;;;;5049917;28;20214;-64
2023/10/22 01:29:10;;;;;;;5.50;1.50;;;;;;;;;;5052841;28;20209;-64
2023/10/22 01:31:37;;;;;;;4.03;1.50;;;;;;;;;;5043603;28;20298;-65
2023/10/22 01:34:04;;;;;;;3.43;1.50;;;;;;;;;;5046710;28;20203;-64
2023/10/22 01:36:31;;;;;;;4.83;1.60;;;;;;;;;;5048662;28;20219;-66
2023/10/22 01:38:58;;;;;;;6.27;1.77;;;;;;;;;;5047558;28;20213;-66
2023/10/22 01:41:27;;;;;;;7.07;1.83;;;;;;;;;;5049777;28;20213;-66
2023/10/22 01:43:56;;;;;;;7.07;2.00;;;;;;;;;;5047383;28;20211;-66
2023/10/22 01:46:23;;;;;;;5.50;1.50;;;;;;;;;;5049519;28;20216;-66
2023/10/22 01:48:50;;;;;;;8.27;1.50;;;;;;;;;;5043965;28;20207;-65
2023/10/22 01:51:17;;;;;;;5.07;1.40;;;;;;;;;;5041948;28;20206;-65
2023/10/22 01:53:44;;;;;;;4.77;1.57;;;;;;;;;;5054024;28;20203;-64
2023/10/22 01:56:11;;;;;;;4.07;1.47;;;;;;;;;;5042816;28;20207;-64
2023/10/22 01:58:40;;;;;;;6.63;1.37;;;;;;;;;;5050451;28;20207;-65
2023/10/22 02:01:07;;;;;;;4.57;1.40;;;;;;;;;;5049336;28;20203;-64
2023/10/22 02:03:35;;;;;;;7.53;1.53;;;;;;;;;;5048284;28;20253;-66
2023/10/22 02:06:03;;;;;;;4.67;1.40;;;;;;;;;;5047724;28;20277;-67
2023/10/22 02:08:30;;;;;;;4.40;1.50;;;;;;;;;;5050268;28;20238;-66
2023/10/22 02:10:57;;;;;;;9.37;1.60;;;;;;;;;;5047180;28;20203;-65
2023/10/22 02:13:24;;;;;;;3.87;1.27;;;;;;;;;;5040370;28;20208;-66
2023/10/22 02:15:52;;;;;;;4.80;1.63;;;;;;;;;;5046333;28;20195;-72
2023/10/22 02:18:19;;;;;;;3.60;1.33;;;;;;;;;;5047212;28;20206;-72
2023/10/22 02:20:54;;;;;;;5.13;1.70;;;;;;;;;;5046584;28;20203;-72
2023/10/22 02:23:21;;;;;;;9.63;1.37;;;;;;;;;;5047576;28;20199;-73
2023/10/22 02:25:49;;;;;;;4.63;1.37;;;;;;;;;;5044526;28;20224;-71
2023/10/22 02:28:16;;;;;;;5.83;1.80;;;;;;;;;;5045872;28;20214;-71
2023/10/22 02:30:43;;;;;;;4.83;1.40;;;;;;;;;;5044346;28;20215;-71
2023/10/22 02:33:13;;;;;;;6.63;1.70;;;;;;;;;;5042944;28;20210;-69
2023/10/22 02:35:41;;;;;;;6.77;1.50;;;;;;;;;;5044982;28;20207;-71
2023/10/22 02:38:08;;;;;;;8.13;2.20;;;;;;;;;;5045303;28;20207;-70
2023/10/22 02:40:36;;;;;;;4.77;1.73;;;;;;;;;;5050256;28;20210;-72
2023/10/22 02:43:04;;;;;;;6.67;1.63;;;;;;;;;;5047512;28;20199;-71
2023/10/22 02:45:31;;;;;;;7.57;1.43;;;;;;;;;;5050657;28;20217;-71
2023/10/22 02:47:58;;;;;;;6.90;1.80;;;;;;;;;;5046756;28;20210;-72
2023/10/22 02:50:27;;;;;;;7.10;1.60;;;;;;;;;;5050726;28;20468;-71
2023/10/22 02:52:55;;;;;;;5.50;1.50;;;;;;;;;;5049178;28;20204;-71
2023/10/22 02:55:22;;;;;;;5.80;1.90;;;;;;;;;;5051843;28;20195;-69
2023/10/22 02:57:50;;;;;;;8.30;1.90;;;;;;;;;;5047009;28;20203;-70
2023/10/22 03:00:19;;;;;;;5.30;1.40;;;;;;;;;;5046979;28;20209;-70
2023/10/22 03:02:46;;;;;;;6.53;1.60;;;;;;;;;;5050270;28;20211;-69
2023/10/22 03:05:13;;;;;;;8.57;1.70;;;;;;;;;;5044928;28;20212;-70
2023/10/22 03:07:42;;;;;;;6.70;1.77;;;;;;;;;;5047458;28;20215;-71
2023/10/22 03:10:10;;;;;;;6.50;1.60;;;;;;;;;;5049831;28;20245;-71
2023/10/22 03:12:37;;;;;;;6.23;1.60;;;;;;;;;;5045797;28;20203;-70
2023/10/22 03:15:05;;;;;;;6.77;2.03;;;;;;;;;;5048892;28;20222;-70
2023/10/22 03:17:32;;;;;;;5.20;1.60;;;;;;;;;;5052472;28;20205;-71
2023/10/22 03:20:00;;;;;;;7.13;1.87;;;;;;;;;;5049122;28;20207;-71
2023/10/22 03:22:27;;;;;;;6.70;1.57;;;;;;;;;;5049685;28;20207;-71
2023/10/22 03:24:55;;;;;;;7.70;1.70;;;;;;;;;;5049688;28;20311;-65
2023/10/22 03:27:23;;;;;;;5.47;1.97;;;;;;;;;;5046712;28;20222;-65
2023/10/22 03:29:50;;;;;;;6.23;1.90;;;;;;;;;;5049094;28;20203;-66
2023/10/22 03:32:17;;;;;;;6.33;1.87;;;;;;;;;;5049514;28;20267;-65
2023/10/22 03:34:44;;;;;;;6.83;2.00;;;;;;;;;;5049555;28;20230;-65
2023/10/22 03:37:12;;;;;;;7.83;1.80;;;;;;;;;;5057799;28;20235;-65
2023/10/22 03:39:41;;;;;;;4.10;1.43;;;;;;;;;;5052741;28;20207;-65
2023/10/22 03:42:09;;;;;;;8.30;1.60;;;;;;;;;;5055249;28;20204;-65
2023/10/22 03:44:36;;;;;;;7.27;2.57;;;;;;;;;;5054354;28;20211;-65
2023/10/22 03:47:03;;;;;;;5.90;2.03;;;;;;;;;;5050024;28;20234;-65
2023/10/22 03:49:31;;;;;;;6.70;1.80;;;;;;;;;;5050041;28;20204;-66
2023/10/22 03:51:58;;;;;;;8.03;2.03;;;;;;;;;;5052509;28;20211;-65
2023/10/22 03:54:25;;;;;;;4.83;1.40;;;;;;;;;;5050029;28;20203;-65
2023/10/22 03:56:52;;;;;;;7.83;2.43;;;;;;;;;;5051800;28;20203;-65
2023/10/22 03:59:21;;;;;;;5.50;1.57;;;;;;;;;;5050980;28;20249;-64
2023/10/22 04:01:52;;;;;;;6.10;1.60;;;;;;;;;;5047724;28;20214;-65
2023/10/22 04:04:19;;;;;;;6.07;1.70;;;;;;;;;;5051365;28;20257;-65
2023/10/22 04:06:46;;;;;;;8.90;1.83;;;;;;;;;;5044265;28;20231;-65
2023/10/22 04:09:13;;;;;;;5.17;1.47;;;;;;;;;;5044600;28;20204;-65
2023/10/22 04:11:40;;;;;;;5.37;1.67;;;;;;;;;;5035792;28;20208;-67
2023/10/22 04:14:07;;;;;;;4.33;1.50;;;;;;;;;;5045701;28;20203;-66
2023/10/22 04:16:36;;;;;;;6.70;1.93;;;;;;;;;;5044320;28;20196;-66
2023/10/22 04:19:03;;;;;;;5.83;1.57;;;;;;;;;;5049276;28;20203;-64
2023/10/22 04:21:30;;;;;;;6.87;1.70;;;;;;;;;;5047250;28;20200;-65
2023/10/22 04:23:57;;;;;;;5.37;1.53;;;;;;;;;;5049199;28;20233;-65
2023/10/22 04:26:24;;;;;;;8.77;1.97;;;;;;;;;;5049927;28;20218;-64
2023/10/22 04:28:52;;;;;;;4.93;1.30;;;;;;;;;;5047216;28;20208;-64
2023/10/22 04:31:20;;;;;;;7.80;1.90;;;;;;;;;;5048233;28;20200;-64
2023/10/22 04:33:49;;;;;;;6.97;1.93;;;;;;;;;;5046545;28;20575;-64
2023/10/22 04:36:16;;;;;;;5.70;1.50;;;;;;;;;;5045164;28;20235;-64
2023/10/22 04:38:43;;;;;;;5.63;1.60;;;;;;;;;;5049025;28;20195;-64
2023/10/22 04:41:11;;;;;;;4.50;1.30;;;;;;;;;;5050276;28;20214;-64
2023/10/22 04:43:38;;;;;;;7.57;1.60;;;;;;;;;;5045779;28;20204;-64
2023/10/22 04:46:05;;;;;;;5.43;1.53;;;;;;;;;;5051414;28;20203;-64
2023/10/22 04:48:33;;;;;;;5.37;1.63;;;;;;;;;;5044425;28;20207;-64
2023/10/22 04:51:05;;;;;;;6.43;1.40;;;;;;;;;;5048932;28;20219;-64
2023/10/22 04:53:33;;;;;;;7.53;1.90;;;;;;;;;;5052958;28;20199;-64
2023/10/22 04:56:00;;;;;;;4.43;1.37;;;;;;;;;;5045975;28;20261;-65
2023/10/22 04:58:28;;;;;;;6.27;1.73;;;;;;;;;;5048817;28;20204;-64
2023/10/22 05:00:55;;;;;;;7.53;1.60;;;;;;;;;;5045959;28;20200;-64
2023/10/22 05:03:23;;;;;;;5.27;1.53;;;;;;;;;;5049251;28;20207;-65
2023/10/22 05:05:50;;;;;;;5.10;1.30;;;;;;;;;;5054203;28;20204;-65
2023/10/22 05:08:18;;;;;;;5.57;1.47;;;;;;;;;;5051309;28;20239;-64
2023/10/22 05:10:45;;;;;;;4.47;1.40;;;;;;;;;;5054319;28;20241;-64
2023/10/22 05:13:13;;;;;;;6.93;1.80;;;;;;;;;;5052510;28;20503;-64
2023/10/22 05:15:40;;;;;;;6.03;1.73;;;;;;;;;;5053408;28;20234;-65
2023/10/22 05:18:08;;;;;;;8.07;1.50;;;;;;;;;;5050580;28;20203;-65
2023/10/22 05:20:35;;;;;;;4.20;1.40;;;;;;;;;;5053508;28;20196;-65
2023/10/22 05:23:04;;;;;;;4.83;1.80;;;;;;;;;;5048270;28;20227;-64
2023/10/22 05:25:32;;;;;;;6.73;1.77;;;;;;;;;;5050751;28;20199;-64
2023/10/22 05:28:00;;;;;;;2.80;1.23;;;;;;;;;;5049043;28;20224;-64
2023/10/22 05:30:27;;;;;;;3.97;1.30;;;;;;;;;;5048539;28;20203;-64
2023/10/22 05:32:54;;;;;;;7.40;1.63;;;;;;;;;;5047130;28;20206;-65
2023/10/22 05:35:21;;;;;;;3.90;1.20;;;;;;;;;;5049848;28;20217;-64
2023/10/22 05:37:49;;;;;;;3.97;1.20;;;;;;;;;;5050230;28;20223;-64
2023/10/22 05:40:17;;;;;;;4.47;1.50;;;;;;;;;;5049725;28;20294;-64
2023/10/22 05:42:46;;;;;;;6.13;1.20;;;;;;;;;;5049581;28;20247;-64
2023/10/22 05:45:13;;;;;;;4.23;1.17;;;;;;;;;;5047126;28;20206;-64
2023/10/22 05:47:40;;;;;;;2.60;1.33;;;;;;;;;;5049397;28;20234;-65
2023/10/22 05:50:07;;;;;;;3.43;1.40;;;;;;;;;;5046603;28;20208;-65
2023/10/22 05:52:35;;;;;;;3.50;1.30;;;;;;;;;;5050394;28;20207;-65
2023/10/22 05:55:02;;;;;;;3.57;1.30;;;;;;;;;;5044812;28;20642;-65
2023/10/22 05:57:29;;;;;;;4.00;1.30;;;;;;;;;;5044364;28;20195;-65
2023/10/22 05:59:58;;;;;;;3.80;1.53;;;;;;;;;;5043599;28;20236;-66
2023/10/22 06:02:25;;;;;;;5.40;1.33;;;;;;;;;;5044767;28;20222;-64
2023/10/22 06:04:53;;;;;;;4.33;1.50;;;;;;;;;;5046011;28;20211;-64
2023/10/22 06:07:20;;;;;;;4.27;1.30;;;;;;;;;;5046253;28;20219;-65
2023/10/22 06:09:47;;;;;;;4.70;1.83;;;;;;;;;;5042919;28;20207;-65
2023/10/22 06:12:15;;;;;;;5.00;1.37;;;;;;;;;;5045898;28;20203;-65
2023/10/22 06:14:42;;;;;;;5.47;1.60;;;;;;;;;;5047346;28;20242;-64
2023/10/22 06:17:10;;;;;;;4.87;1.30;;;;;;;;;;5044493;28;20196;-66
2023/10/22 06:19:38;;;;;;;2.80;1.37;;;;;;;;;;5045728;28;20200;-64
2023/10/22 06:22:05;;;;;;;2.97;1.30;;;;;;;;;;5046806;28;20212;-64
2023/10/22 06:24:32;;;;;;;5.07;1.43;;;;;;;;;;5047113;28;20314;-64
2023/10/22 06:26:59;;;;;;;3.17;1.10;;;;;;;;;;5048758;28;20223;-64
2023/10/22 06:29:26;;;;;;;3.13;1.30;;;;;;;;;;5044936;28;20196;-66
2023/10/22 06:31:54;;;;;;;3.40;1.47;;;;;;;;;;5045909;28;20207;-64
2023/10/22 06:34:22;;;;;;;3.10;1.10;;;;;;;;;;5044291;28;20199;-65
2023/10/22 06:36:50;;;;;;;4.20;1.30;;;;;;;;;;5044656;28;20238;-65
2023/10/22 06:39:17;;;;;;;4.33;1.30;;;;;;;;;;5047346;28;20233;-64
2023/10/22 06:41:44;;;;;;;4.20;1.30;;;;;;;;;;5046702;28;20212;-65
2023/10/22 06:44:11;;;;;;;3.87;1.50;;;;;;;;;;5045526;28;20199;-65
2023/10/22 06:46:38;;;;;;;3.43;1.47;;;;;;;;;;5047738;28;20203;-65
2023/10/22 06:49:05;;;;;;;5.67;1.50;;;;;;;;;;5046189;28;20207;-64
2023/10/22 06:51:34;;;;;;;5.77;1.90;;;;;;;;;;5048210;28;20214;-65
2023/10/22 06:54:01;;;;;;;4.37;1.50;;;;;;;;;;5044522;28;20204;-65
2023/10/22 06:56:28;;;;;;;3.77;1.20;;;;;;;;;;5047947;28;20203;-71
2023/10/22 06:58:55;;;;;;;5.07;1.40;;;;;;;;;;5045921;28;20210;-71
2023/10/22 07:01:22;;;;;;;5.37;1.43;;;;;;;;;;5044873;28;20214;-69
2023/10/22 07:03:49;;;;;;;4.87;1.47;;;;;;;;;;5048495;28;20207;-70
2023/10/22 07:06:17;;;;;;;3.93;1.50;;;;;;;;;;5046649;28;20208;-71
2023/10/22 07:08:46;;;;;;;4.53;1.33;;;;;;;;;;5038502;28;20223;-70
2023/10/22 07:11:13;;;;;;;6.53;1.53;;;;;;;;;;5044342;28;20219;-71
2023/10/22 07:13:40;;;;;;;4.13;1.30;;;;;;;;;;5040899;28;20207;-71
2023/10/22 07:16:08;;;;;;;4.23;1.23;;;;;;;;;;5042327;28;20427;-72
2023/10/22 07:18:35;;;;;;;6.00;1.23;;;;;;;;;;5045595;28;20203;-71
2023/10/22 07:21:02;;;;;;;4.83;1.50;;;;;;;;;;5044649;28;20213;-72
2023/10/22 07:23:31;;;;;;;2.63;1.30;;;;;;;;;;5040928;28;20203;-71
2023/10/22 07:25:59;;;;;;;3.03;1.20;;;;;;;;;;5048880;28;20281;-71
2023/10/22 07:28:26;;;;;;;4.77;1.60;;;;;;;;;;5050751;28;20238;-71
2023/10/22 07:30:54;;;;;;;3.13;1.10;;;;;;;;;;5050657;28;20209;-71
2023/10/22 07:33:21;;;;;;;5.93;1.30;;;;;;;;;;5048111;28;20196;-69
2023/10/22 07:35:54;;;;;;;4.47;1.63;;;;;;;;;;5046388;28;20253;-70
2023/10/22 07:38:21;;;;;;;2.93;1.37;;;;;;;;;;5047253;28;20192;-71
2023/10/22 07:40:50;;;;;;;3.47;1.30;;;;;;;;;;5049826;28;20213;-71
2023/10/22 07:43:19;;;;;;;4.43;1.20;;;;;;;;;;5048366;28;20291;-71
2023/10/22 07:45:46;;;;;;;5.13;1.80;;;;;;;;;;5045833;28;20208;-71
2023/10/22 07:48:14;;;;;;;4.50;1.40;;;;;;;;;;5048978;28;20227;-71
2023/10/22 07:50:41;;;;;;;6.87;1.60;;;;;;;;;;5048690;28;20203;-71
2023/10/22 07:53:08;;;;;;;4.67;1.40;;;;;;;;;;5047085;28;20454;-70
2023/10/22 07:55:37;;;;;;;5.27;1.30;;;;;;;;;;5048309;28;20203;-70
2023/10/22 07:58:04;;;;;;;5.63;1.40;;;;;;;;;;5047728;28;20218;-71
2023/10/22 08:00:33;;;;;;;5.87;1.47;;;;;;;;;;5049890;28;20206;-72
2023/10/22 08:03:00;;;;;;;6.20;1.60;;;;;;;;;;5050207;28;20223;-71
2023/10/22 08:05:29;;;;;;;4.63;1.33;;;;;;;;;;5045388;28;20207;-70
2023/10/22 08:07:56;;;;;;;4.00;1.63;;;;;;;;;;5045515;28;20220;-71
2023/10/22 08:10:23;;;;;;;7.17;1.43;;;;;;;;;;5043312;28;20233;-71
2023/10/22 08:12:50;;;;;;;6.03;2.00;;;;;;;;;;5046231;28;20222;-69
2023/10/22 08:15:17;;;;;;;6.90;2.00;;;;;;;;;;5043201;28;20207;-71
2023/10/22 08:17:47;;;;;;;6.47;2.17;;;;;;;;;;5046653;28;20204;-71
2023/10/22 08:20:14;;;;;;;5.30;1.80;;;;;;;;;;5046548;28;20210;-70
2023/10/22 08:22:41;;;;;;;5.70;1.57;;;;;;;;;;5043554;28;20207;-70
2023/10/22 08:25:09;;;;;;;9.30;1.90;;;;;;;;;;5044466;28;20203;-71
2023/10/22 08:27:36;;;;;;;4.57;2.00;;;;;;;;;;5046727;28;20223;-71
2023/10/22 08:30:03;;;;;;;4.57;1.73;;;;;;;;;;5043056;28;20215;-70
2023/10/22 08:32:30;;;;;;;9.03;2.07;;;;;;;;;;5047601;28;20196;-70
2023/10/22 08:34:58;;;;;;;4.40;1.40;;;;;;;;;;5046841;28;20203;-69
2023/10/22 08:37:27;;;;;;;6.30;1.47;;;;;;;;;;5045971;28;20235;-70
2023/10/22 08:39:54;;;;;;;6.17;1.83;;;;;;;;;;5049482;28;20215;-70
2023/10/22 08:42:23;;;;;;;4.17;1.60;;;;;;;;;;5048536;28;20547;-69
2023/10/22 08:44:52;;;;;;;5.77;1.80;;;;;;;;;;5046221;28;20204;-71
2023/10/22 08:47:19;;;;;;;5.03;1.43;;;;;;;;;;5048413;28;20257;-70
2023/10/22 08:49:48;;;;;;;4.87;1.60;;;;;;;;;;5045842;28;20191;-69
2023/10/22 08:52:16;;;;;;;5.57;1.63;;;;;;;;;;5050329;28;20455;-69
2023/10/22 08:54:45;;;;;;;6.93;1.80;;;;;;;;;;5052173;28;20214;-70
2023/10/22 08:57:13;;;;;;;5.30;1.73;;;;;;;;;;5050277;28;20199;-70
2023/10/22 08:59:40;;;;;;;4.17;1.30;;;;;;;;;;5050440;28;20290;-71
2023/10/22 09:02:09;;;;;;;5.70;1.50;;;;;;;;;;5050228;28;20206;-70
2023/10/22 09:04:36;;;;;;;5.80;1.63;;;;;;;;;;5049363;28;20207;-71
2023/10/22 09:07:03;;;;;;;2.77;1.37;;;;;;;;;;5048031;28;20222;-71
2023/10/22 09:09:35;;;;;;;4.63;1.30;;;;;;;;;;5050087;28;20220;-71
2023/10/22 09:12:03;;;;;;;6.70;1.33;;;;;;;;;;5047049;28;20261;-70
2023/10/22 09:14:30;;;;;;;3.50;1.17;;;;;;;;;;5048863;28;20207;-65
2023/10/22 09:16:57;;;;;;;5.37;1.30;;;;;;;;;;5049315;28;20204;-65
2023/10/22 09:19:36;;;;;;;4.47;1.30;;;;;;;;;;5046820;28;20207;-65
2023/10/22 09:22:04;;;;;;;5.50;1.40;;;;;;;;;;5046478;28;20203;-64
2023/10/22 09:24:33;;;;;;;4.57;1.70;;;;;;;;;;5046452;28;20203;-64
2023/10/22 09:27:00;;;;;;;5.00;1.33;;;;;;;;;;5045396;28;20203;-65
2023/10/22 09:29:27;;;;;;;5.97;1.70;;;;;;;;;;5047246;28;20298;-65
2023/10/22 09:31:55;;;;;;;7.27;1.60;;;;;;;;;;5045787;28;20195;-65
2023/10/22 09:34:26;;;;;;;4.03;1.53;;;;;;;;;;5040627;28;20203;-65
2023/10/22 09:36:53;;;;;;;5.63;1.60;;;;;;;;;;5043486;28;20241;-65
2023/10/22 09:39:34;;;;;;;6.50;1.70;;;;;;;;;;5043638;28;20195;-65
2023/10/22 09:42:03;;;;;;;5.60;1.97;;;;;;;;;;5047715;28;20261;-65
2023/10/22 09:44:31;;;;;;;6.30;1.63;;;;;;;;;;5045267;28;20259;-66
2023/10/22 09:46:59;;;;;;;5.43;1.63;;;;;;;;;;5047592;28;20211;-65
2023/10/22 09:49:27;;;;;;;4.43;1.60;;;;;;;;;;5046466;28;20219;-65
2023/10/22 09:51:55;;;;;;;6.47;1.80;;;;;;;;;;5046062;28;20210;-65
2023/10/22 09:54:23;;;;;;;5.67;1.90;;;;;;;;;;5046710;28;20211;-65
2023/10/22 09:56:52;;;;;;;2.17;1.03;;;;;;;;;;5050169;28;20214;-65
2023/10/22 09:59:22;;;;;;;4.17;1.63;;;;;;;;;;5042858;28;20203;-65
2023/10/22 10:01:50;;;;;;;4.43;1.60;;;;;;;;;;5047419;28;20203;-65
2023/10/22 10:04:18;;;;;;;3.60;1.27;;;;;;;;;;5046180;28;20488;-65
2023/10/22 10:06:45;;;;;;;5.37;1.50;;;;;;;;;;5045270;28;20222;-65
2023/10/22 10:09:12;;;;;;;4.37;1.17;;;;;;;;;;5044487;28;20222;-65
2023/10/22 10:11:40;;;;;;;5.87;1.30;;;;;;;;;;5045700;28;20200;-64
2023/10/22 10:14:15;;;;;;;3.03;1.30;;;;;;;;;;5048145;28;20206;-65
2023/10/22 10:16:43;;;;;;;4.20;1.40;;;;;;;;;;5051899;28;20395;-64
2023/10/22 10:19:10;;;;;;;3.53;1.13;;;;;;;;;;5047971;28;20203;-65
2023/10/22 10:21:39;;;;;;;5.43;1.50;;;;;;;;;;5048341;28;20204;-66
2023/10/22 10:24:19;;;;;;;6.67;1.70;;;;;;;;;;5046331;28;20245;-65
2023/10/22 10:26:47;;;;;;;4.23;1.80;;;;;;;;;;5046807;28;20207;-64
2023/10/22 10:29:16;;;;;;;5.83;1.30;;;;;;;;;;5049374;28;20242;-65
2023/10/22 10:31:45;;;;;;;6.40;1.60;;;;;;;;;;5047357;28;20199;-65
2023/10/22 10:34:21;;;;;;;3.53;1.30;;;;;;;;;;5046210;28;20222;-64
2023/10/22 10:36:48;;;;;;;6.77;1.60;;;;;;;;;;5042649;28;20385;-64
2023/10/22 10:39:33;;;;;;;3.60;1.30;;;;;;;;;;5045566;28;20298;-65
2023/10/22 10:42:01;;;;;;;5.17;1.53;;;;;;;;;;5049579;28;20207;-64
2023/10/22 10:44:31;;;;;;;2.60;1.20;;;;;;;;;;5048122;28;20203;-65
2023/10/22 10:47:13;;;;;;;4.77;1.50;;;;;;;;;;5045407;28;20196;-67
2023/10/22 10:49:55;;;;;;;4.43;1.50;;;;;;;;;;5049291;28;20239;-64
2023/10/22 10:52:22;;;;;;;4.20;1.40;;;;;;;;;;5049393;28;20199;-65
2023/10/22 10:55:04;;;;;;;4.23;1.60;;;;;;;;;;5045469;28;20207;-65
2023/10/22 10:57:35;;;;;;;2.60;1.10;;;;;;;;;;5047251;28;20207;-67
2023/10/22 11:00:05;;;;;;;1.90;1.10;;;;;;;;;;5046756;28;20202;-66
2023/10/22 11:02:41;;;;;;;4.80;1.33;;;;;;;;;;5052259;28;20207;-65
2023/10/22 11:05:09;;;;;;;3.53;1.40;;;;;;;;;;5050403;28;20349;-66
2023/10/22 11:07:36;;;;;;;2.47;1.17;;;;;;;;;;5045162;28;20252;-67
2023/10/22 11:10:09;;;;;;;2.93;1.53;;;;;;;;;;5053930;28;20226;-67
2023/10/22 11:12:37;;;;;;;4.60;1.30;;;;;;;;;;5050274;28;20200;-66
2023/10/22 11:15:08;;;;;;;2.77;1.20;;;;;;;;;;5049981;28;20206;-65
2023/10/22 11:17:35;;;;;;;3.70;1.27;;;;;;;;;;5050868;28;20207;-65
2023/10/22 11:20:04;;;;;;;2.40;1.13;;;;;;;;;;5053346;28;20196;-65
2023/10/22 11:22:31;;;;;;;3.33;1.30;;;;;;;;;;5050673;28;20199;-66
2023/10/22 11:24:59;;;;;;;3.33;1.47;;;;;;;;;;5051570;28;20302;-65
2023/10/22 11:27:27;;;;;;;3.57;1.83;;;;;;;;;;5052442;28;20199;-65
2023/10/22 11:29:55;;;;;;;3.27;1.53;;;;;;;;;;5051725;28;20235;-65
2023/10/22 11:32:25;;;;;;;3.67;1.10;;;;;;;;;;5051973;28;20286;-64
2023/10/22 11:34:53;;;;;;;4.90;1.30;;;;;;;;;;5051206;28;20192;-66
2023/10/22 11:37:20;;;;;;;3.77;1.50;;;;;;;;;;5050960;28;20231;-64
2023/10/22 11:39:48;;;;;;;3.80;1.40;;;;;;;;;;5047818;28;20206;-65
2023/10/22 11:42:15;;;;;;;3.87;1.60;;;;;;;;;;5051264;28;20213;-65
2023/10/22 11:44:44;;;;;;;2.43;1.17;;;;;;;;;;5046184;28;20203;-65
2023/10/22 11:47:33;;;;;;;2.63;1.33;;;;;;;;;;5048725;28;20208;-66
2023/10/22 11:50:02;;;;;;;4.33;1.33;;;;;;;;;;5043096;28;20223;-66
2023/10/22 11:52:39;;;;;;;4.73;1.30;;;;;;;;;;5049455;28;20220;-64
2023/10/22 11:55:07;;;;;;;4.80;1.23;;;;;;;;;;5049382;28;20280;-65
2023/10/22 11:57:34;;;;;;;3.90;1.43;;;;;;;;;;5050586;28;20195;-65
2023/10/22 12:00:02;;;;;;;6.27;1.33;;;;;;;;;;5048084;28;20207;-65
2023/10/22 12:02:29;;;;;;;2.47;1.20;;;;;;;;;;5050842;28;20245;-65
2023/10/22 12:04:56;;;;;;;5.83;1.60;;;;;;;;;;5047768;28;20308;-65
2023/10/22 12:07:25;;;;;;;6.30;1.40;;;;;;;;;;5052669;28;20202;-65
2023/10/22 12:09:52;;;;;;;3.67;1.60;;;;;;;;;;5050055;28;20219;-65
2023/10/22 12:12:20;;;;;;;5.70;1.50;;;;;;;;;;5049235;28;20214;-65
2023/10/22 12:14:47;;;;;;;3.67;1.30;;;;;;;;;;5047991;28;20207;-64
2023/10/22 12:17:15;;;;;;;4.77;1.30;;;;;;;;;;5050701;28;20195;-65
2023/10/22 12:19:42;;;;;;;4.75;1.38;;;;;;;;;;5050208;28;20203;-64
2023/10/22 12:22:11;;;;;;;3.60;1.50;;;;;;;;;;5047893;28;20199;-65
2023/10/22 12:24:40;;;;;;;5.17;1.30;;;;;;;;;;5052258;28;20290;-65
2023/10/22 12:27:07;;;;;;;5.40;1.80;;;;;;;;;;5051093;28;20203;-65
2023/10/22 12:29:34;;;;;;;3.37;1.40;;;;;;;;;;5048390;28;20228;-65
2023/10/22 12:32:01;;;;;;;2.47;1.37;;;;;;;;;;5047139;28;20210;-65
2023/10/22 12:34:28;;;;;;;3.50;1.60;;;;;;;;;;5047302;28;20445;-65
2023/10/22 12:36:57;;;;;;;3.87;1.50;;;;;;;;;;5049658;28;20298;-64
2023/10/22 12:39:24;;;;;;;2.67;1.40;;;;;;;;;;5047152;28;20208;-65
2023/10/22 12:41:52;;;;;;;3.70;1.30;;;;;;;;;;5046521;28;20199;-64
2023/10/22 12:44:21;;;;;;;3.23;1.20;;;;;;;;;;5047053;28;20203;-65
2023/10/22 12:46:51;;;;;;;5.00;1.40;;;;;;;;;;5049281;28;20261;-65
2023/10/22 12:49:18;;;;;;;2.67;1.40;;;;;;;;;;5048079;28;20243;-65
2023/10/22 12:51:45;;;;;;;4.13;1.77;;;;;;;;;;5043200;28;20200;-66
2023/10/22 12:54:12;;;;;;;3.33;1.40;;;;;;;;;;5046368;28;20200;-66
2023/10/22 12:56:39;;;;;;;2.97;1.20;;;;;;;;;;5046354;28;20209;-65
2023/10/22 12:59:08;;;;;;;5.50;1.50;;;;;;;;;;5048850;28;20214;-66
2023/10/22 13:01:35;;;;;;;3.43;1.27;;;;;;;;;;5049974;28;20210;-65
2023/10/22 13:04:03;;;;;;;3.50;1.27;;;;;;;;;;5051384;28;20263;-65
2023/10/22 13:06:30;;;;;;;1.87;1.10;;;;;;;;;;5052964;28;20226;-65
2023/10/22 13:08:57;;;;;;;5.73;1.37;;;;;;;;;;5048025;28;20215;-65
2023/10/22 13:11:24;;;;;;;4.10;1.40;;;;;;;;;;5045168;28;20202;-65
2023/10/22 13:13:51;;;;;;;3.50;1.33;;;;;;;;;;5045753;28;20438;-65
2023/10/22 13:16:20;;;;;;;6.50;1.47;;;;;;;;;;5047477;28;20226;-65
2023/10/22 13:18:47;;;;;;;1.63;1.07;;;;;;;;;;5050863;28;20217;-65
2023/10/22 13:21:14;;;;;;;5.73;1.50;;;;;;;;;;5051186;28;20196;-65
2023/10/22 13:23:41;;;;;;;2.90;1.23;;;;;;;;;;5049954;28;20215;-65
2023/10/22 13:26:09;;;;;;;4.50;1.50;;;;;;;;;;5047850;28;20209;-65
2023/10/22 13:28:36;;;;;;;4.17;1.53;;;;;;;;;;5048530;28;20254;-64
2023/10/22 13:31:04;;;;;;;4.23;1.20;;;;;;;;;;5048362;28;20277;-65
2023/10/22 13:33:32;;;;;;;4.00;1.10;;;;;;;;;;5046303;28;20204;-65
2023/10/22 13:36:03;;;;;;;3.50;1.07;;;;;;;;;;5043612;28;20256;-65
2023/10/22 13:38:30;;;;;;;2.40;1.30;;;;;;;;;;5046227;28;20290;-65
2023/10/22 13:40:57;;;;;;;4.10;1.73;;;;;;;;;;5043678;28;20211;-65
2023/10/22 13:43:24;;;;;;;3.42;1.42;;;;;;;;;;5045516;28;20212;-65
2023/10/22 13:45:51;;;;;;;3.65;1.60;;;;;;;;;;5046941;28;20210;-65
2023/10/22 13:48:18;;;;;;;3.75;1.30;;;;;;;;;;5041888;28;20207;-65
2023/10/22 13:50:47;;;;;;;2.33;1.10;;;;;;;;;;5043902;28;20238;-65
2023/10/22 13:53:14;;;;;;;2.00;1.20;;;;;;;;;;5049021;28;20203;-64
2023/10/22 13:55:41;;;;;;;2.47;0.97;;;;;;;;;;5047025;28;20214;-70
2023/10/22 13:58:08;;;;;;;1.80;1.13;;;;;;;;;;5045108;28;20210;-69
2023/10/22 14:00:38;;;;;;;2.70;1.30;;;;;;;;;;5047944;28;20210;-70
2023/10/22 14:03:05;;;;;;;3.17;1.55;;;;;;;;;;5044020;28;20204;-70
2023/10/22 14:05:33;;;;;;;2.40;1.65;;;;;;;;;;5045468;28;20199;-69
2023/10/22 14:08:01;;;;;;;5.10;1.67;;;;;;;;;;5046475;28;20200;-70
2023/10/22 14:10:31;;;;;;;4.05;1.42;;;;;;;;;;5048885;28;20241;-70
2023/10/22 14:12:59;;;;;;;3.47;1.38;;;;;;;;;;5047899;28;20210;-70
2023/10/22 14:15:29;;;;;;;4.25;1.40;;;;;;;;;;5046615;28;20200;-68
2023/10/22 14:17:56;;;;;;;3.70;2.35;;;;;;;;;;5041079;28;20213;-69
2023/10/22 14:20:23;;;;;;;6.40;2.00;;;;;;;;;;5044722;28;20199;-69
2023/10/22 14:22:50;;;;;;;2.75;1.65;;;;;;;;;;5048654;28;20202;-69
2023/10/22 14:25:23;;;;;;;6.47;1.80;;;;;;;;;;5048965;28;20268;-68
2023/10/22 14:27:50;;;;;;;2.83;1.60;;;;;;;;;;5048341;28;20207;-68
2023/10/22 14:30:18;;;;;;;3.55;1.50;;;;;;;;;;5045288;28;20220;-70
2023/10/22 14:32:45;;;;;;;7.80;1.40;;;;;;;;;;5047631;28;20596;-69
2023/10/22 14:35:12;;;;;;;4.33;1.87;;;;;;;;;;5049422;28;20211;-69
2023/10/22 14:37:40;;;;;;;3.65;1.63;;;;;;;;;;5050279;28;20294;-68
2023/10/22 14:40:10;;;;;;;2.27;1.30;;;;;;;;;;5048339;28;20221;-68
2023/10/22 14:42:38;;;;;;;3.85;1.42;;;;;;;;;;5049723;28;20203;-68
2023/10/22 14:45:06;;;;;;;2.05;1.30;;;;;;;;;;5049560;28;20213;-68
2023/10/22 14:47:33;;;;;;;3.88;1.55;;;;;;;;;;5051047;28;20200;-68